Terminal Aerodrome Forecast
Issued by NWS Dallas/Fort Worth, TX

Home | Current Version | Previous Version | Text Only | Print | Product List | Glossary On
Versions: 1 2 3 4 5 6 7 8 9 10 11 12 13 14 15 16 17 18 19 20 21 22 23 24 25 26 27 28
000
FTUS44 KFWD 281138
TAFACT
TAF
KACT 281138Z 2812/2912 17008KT P6SM OVC006
      TEMPO 2812/2815 4SM BR OVC004
     FM281600 18010KT P6SM SCT006 BKN010
     FM281800 18010KT P6SM SCT015 BKN035
     FM282100 16010KT P6SM BKN050
     FM290300 14007KT P6SM OVC012=

USA.gov is the U.S. government's official web portal to all federal, state and local government web resources and services.